sensor_id;sensor_type;location;lat;lon;timestamp;P1;durP1;ratioP1;P2;durP2;ratioP2
56037;SDS011;41907;47.848;9.000;2023-02-01T00:01:11;28.52;;;16.88;;
56037;SDS011;41907;47.848;9.000;2023-02-01T00:03:36;20.48;;;11.55;;
56037;SDS011;41907;47.848;9.000;2023-02-01T00:06:02;13.00;;;7.80;;
56037;SDS011;41907;47.848;9.000;2023-02-01T00:08:27;39.40;;;23.15;;
56037;SDS011;41907;47.848;9.000;2023-02-01T00:10:59;26.20;;;16.33;;
56037;SDS011;41907;47.848;9.000;2023-02-01T00:13:27;25.23;;;15.23;;
56037;SDS011;41907;47.848;9.000;2023-02-01T00:15:54;22.13;;;14.57;;
56037;SDS011;41907;47.848;9.000;2023-02-01T00:18:19;15.40;;;10.23;;
56037;SDS011;41907;47.848;9.000;2023-02-01T00:20:45;96.28;;;64.38;;
56037;SDS011;41907;47.848;9.000;2023-02-01T00:23:11;51.92;;;36.50;;
56037;SDS011;41907;47.848;9.000;2023-02-01T00:25:37;112.13;;;70.32;;
56037;SDS011;41907;47.848;9.000;2023-02-01T00:28:02;99.50;;;69.57;;
56037;SDS011;41907;47.848;9.000;2023-02-01T00:30:27;35.75;;;25.85;;
56037;SDS011;41907;47.848;9.000;2023-02-01T00:32:53;19.80;;;14.35;;
56037;SDS011;41907;47.848;9.000;2023-02-01T00:35:18;17.45;;;11.73;;
56037;SDS011;41907;47.848;9.000;2023-02-01T00:37:43;37.60;;;25.73;;
56037;SDS011;41907;47.848;9.000;2023-02-01T00:40:09;18.05;;;12.10;;
56037;SDS011;41907;47.848;9.000;2023-02-01T00:42:35;10.95;;;6.25;;
56037;SDS011;41907;47.848;9.000;2023-02-01T00:45:00;13.05;;;5.70;;
56037;SDS011;41907;47.848;9.000;2023-02-01T00:47:25;12.18;;;7.65;;
56037;SDS011;41907;47.848;9.000;2023-02-01T00:49:51;23.80;;;16.83;;
56037;SDS011;41907;47.848;9.000;2023-02-01T00:52:17;41.17;;;30.33;;
56037;SDS011;41907;47.848;9.000;2023-02-01T00:54:42;21.15;;;14.55;;
56037;SDS011;41907;47.848;9.000;2023-02-01T00:57:07;8.20;;;5.40;;
56037;SDS011;41907;47.848;9.000;2023-02-01T00:59:33;10.20;;;5.75;;
56037;SDS011;41907;47.848;9.000;2023-02-01T01:01:58;14.82;;;10.48;;
56037;SDS011;41907;47.848;9.000;2023-02-01T01:04:23;10.30;;;5.90;;
56037;SDS011;41907;47.848;9.000;2023-02-01T01:06:49;9.98;;;8.05;;
56037;SDS011;41907;47.848;9.000;2023-02-01T01:09:14;11.88;;;7.18;;
56037;SDS011;41907;47.848;9.000;2023-02-01T01:11:39;6.25;;;4.13;;
56037;SDS011;41907;47.848;9.000;2023-02-01T01:14:05;24.48;;;19.02;;
56037;SDS011;41907;47.848;9.000;2023-02-01T01:16:32;28.45;;;20.10;;
56037;SDS011;41907;47.848;9.000;2023-02-01T01:18:58;14.02;;;9.13;;
56037;SDS011;41907;47.848;9.000;2023-02-01T01:21:24;8.50;;;4.07;;
56037;SDS011;41907;47.848;9.000;2023-02-01T01:23:50;6.15;;;4.32;;
56037;SDS011;41907;47.848;9.000;2023-02-01T01:26:17;6.60;;;3.65;;
56037;SDS011;41907;47.848;9.000;2023-02-01T01:28:44;6.60;;;3.47;;
56037;SDS011;41907;47.848;9.000;2023-02-01T01:31:11;4.90;;;3.55;;
56037;SDS011;41907;47.848;9.000;2023-02-01T01:33:37;10.00;;;6.15;;
56037;SDS011;41907;47.848;9.000;2023-02-01T01:36:06;13.73;;;8.10;;
56037;SDS011;41907;47.848;9.000;2023-02-01T01:38:35;9.18;;;4.75;;
56037;SDS011;41907;47.848;9.000;2023-02-01T01:41:00;5.90;;;3.97;;
56037;SDS011;41907;47.848;9.000;2023-02-01T01:43:44;7.25;;;3.58;;
56037;SDS011;41907;47.848;9.000;2023-02-01T01:46:14;10.13;;;6.07;;
56037;SDS011;41907;47.848;9.000;2023-02-01T01:48:41;7.85;;;5.03;;
56037;SDS011;41907;47.848;9.000;2023-02-01T01:51:08;7.72;;;4.72;;
56037;SDS011;41907;47.848;9.000;2023-02-01T01:53:40;8.27;;;5.63;;
56037;SDS011;41907;47.848;9.000;2023-02-01T01:56:12;9.45;;;6.45;;
56037;SDS011;41907;47.848;9.000;2023-02-01T01:58:38;12.93;;;6.45;;
56037;SDS011;41907;47.848;9.000;2023-02-01T02:01:04;6.97;;;4.65;;
56037;SDS011;41907;47.848;9.000;2023-02-01T02:03:34;19.63;;;11.30;;
56037;SDS011;41907;47.848;9.000;2023-02-01T02:06:02;18.70;;;11.65;;
56037;SDS011;41907;47.848;9.000;2023-02-01T02:08:32;15.90;;;10.70;;
56037;SDS011;41907;47.848;9.000;2023-02-01T02:10:58;10.35;;;4.95;;
56037;SDS011;41907;47.848;9.000;2023-02-01T02:13:38;8.43;;;4.68;;
56037;SDS011;41907;47.848;9.000;2023-02-01T02:21:48;7.30;;;3.13;;
56037;SDS011;41907;47.848;9.000;2023-02-01T02:30:37;7.25;;;3.47;;
56037;SDS011;41907;47.848;9.000;2023-02-01T02:36:17;6.18;;;3.65;;
56037;SDS011;41907;47.848;9.000;2023-02-01T02:39:08;7.20;;;3.85;;
56037;SDS011;41907;47.848;9.000;2023-02-01T02:53:01;11.10;;;4.65;;
56037;SDS011;41907;47.848;9.000;2023-02-01T02:55:51;10.73;;;6.13;;
56037;SDS011;41907;47.848;9.000;2023-02-01T02:58:17;9.45;;;4.95;;
56037;SDS011;41907;47.848;9.000;2023-02-01T03:03:48;8.85;;;3.95;;
56037;SDS011;41907;47.848;9.000;2023-02-01T03:06:34;9.07;;;5.10;;
56037;SDS011;41907;47.848;9.000;2023-02-01T03:09:01;9.05;;;3.90;;
56037;SDS011;41907;47.848;9.000;2023-02-01T03:11:31;10.05;;;4.85;;
56037;SDS011;41907;47.848;9.000;2023-02-01T03:14:16;9.63;;;4.28;;
56037;SDS011;41907;47.848;9.000;2023-02-01T03:16:47;14.98;;;6.40;;
56037;SDS011;41907;47.848;9.000;2023-02-01T03:19:18;20.70;;;10.07;;
56037;SDS011;41907;47.848;9.000;2023-02-01T03:21:45;20.88;;;13.18;;
56037;SDS011;41907;47.848;9.000;2023-02-01T03:24:18;15.20;;;8.68;;
56037;SDS011;41907;47.848;9.000;2023-02-01T03:26:58;17.27;;;8.85;;
56037;SDS011;41907;47.848;9.000;2023-02-01T03:29:32;19.52;;;6.35;;
56037;SDS011;41907;47.848;9.000;2023-02-01T03:32:03;10.57;;;5.20;;
56037;SDS011;41907;47.848;9.000;2023-02-01T03:34:28;9.85;;;5.28;;
56037;SDS011;41907;47.848;9.000;2023-02-01T03:36:58;11.07;;;5.38;;
56037;SDS011;41907;47.848;9.000;2023-02-01T03:42:43;14.88;;;6.07;;
56037;SDS011;41907;47.848;9.000;2023-02-01T03:45:17;12.40;;;4.88;;
56037;SDS011;41907;47.848;9.000;2023-02-01T03:47:48;12.15;;;5.53;;
56037;SDS011;41907;47.848;9.000;2023-02-01T03:50:21;16.48;;;7.18;;
56037;SDS011;41907;47.848;9.000;2023-02-01T03:55:30;12.27;;;6.28;;
56037;SDS011;41907;47.848;9.000;2023-02-01T03:58:05;14.85;;;5.88;;
56037;SDS011;41907;47.848;9.000;2023-02-01T04:00:31;16.05;;;7.75;;
56037;SDS011;41907;47.848;9.000;2023-02-01T04:02:57;13.82;;;6.03;;
56037;SDS011;41907;47.848;9.000;2023-02-01T04:05:22;11.30;;;5.43;;
56037;SDS011;41907;47.848;9.000;2023-02-01T04:07:48;10.15;;;5.70;;
56037;SDS011;41907;47.848;9.000;2023-02-01T04:10:13;8.00;;;4.20;;
56037;SDS011;41907;47.848;9.000;2023-02-01T04:12:40;5.53;;;3.70;;
56037;SDS011;41907;47.848;9.000;2023-02-01T04:15:06;10.75;;;6.25;;
56037;SDS011;41907;47.848;9.000;2023-02-01T04:17:32;9.00;;;5.00;;
56037;SDS011;41907;47.848;9.000;2023-02-01T04:19:57;6.40;;;3.60;;
56037;SDS011;41907;47.848;9.000;2023-02-01T04:22:23;9.52;;;4.45;;
56037;SDS011;41907;47.848;9.000;2023-02-01T04:24:48;6.53;;;3.30;;
56037;SDS011;41907;47.848;9.000;2023-02-01T04:27:14;6.82;;;3.75;;
56037;SDS011;41907;47.848;9.000;2023-02-01T04:29:39;5.35;;;3.55;;
56037;SDS011;41907;47.848;9.000;2023-02-01T04:32:05;8.00;;;3.60;;
56037;SDS011;41907;47.848;9.000;2023-02-01T04:34:30;6.63;;;3.38;;
56037;SDS011;41907;47.848;9.000;2023-02-01T04:36:56;5.78;;;3.30;;
56037;SDS011;41907;47.848;9.000;2023-02-01T04:39:21;6.72;;;3.63;;
56037;SDS011;41907;47.848;9.000;2023-02-01T04:41:47;5.90;;;3.22;;
56037;SDS011;41907;47.848;9.000;2023-02-01T04:44:13;39.58;;;19.05;;
56037;SDS011;41907;47.848;9.000;2023-02-01T04:46:40;24.50;;;11.55;;
56037;SDS011;41907;47.848;9.000;2023-02-01T04:49:05;8.85;;;4.15;;
56037;SDS011;41907;47.848;9.000;2023-02-01T04:51:31;5.78;;;3.53;;
56037;SDS011;41907;47.848;9.000;2023-02-01T04:53:56;4.38;;;3.20;;
56037;SDS011;41907;47.848;9.000;2023-02-01T04:56:21;6.40;;;3.83;;
56037;SDS011;41907;47.848;9.000;2023-02-01T04:58:47;5.03;;;3.70;;
56037;SDS011;41907;47.848;9.000;2023-02-01T05:01:12;6.13;;;3.20;;
56037;SDS011;41907;47.848;9.000;2023-02-01T05:03:38;6.05;;;3.45;;
56037;SDS011;41907;47.848;9.000;2023-02-01T05:06:03;7.32;;;3.90;;
56037;SDS011;41907;47.848;9.000;2023-02-01T05:08:29;6.75;;;4.50;;
56037;SDS011;41907;47.848;9.000;2023-02-01T05:10:56;9.95;;;4.40;;
56037;SDS011;41907;47.848;9.000;2023-02-01T05:13:21;9.38;;;4.72;;
56037;SDS011;41907;47.848;9.000;2023-02-01T05:16:05;9.07;;;5.43;;
56037;SDS011;41907;47.848;9.000;2023-02-01T05:18:30;9.00;;;5.10;;
56037;SDS011;41907;47.848;9.000;2023-02-01T05:20:56;12.73;;;5.07;;
56037;SDS011;41907;47.848;9.000;2023-02-01T05:23:21;8.35;;;4.60;;
56037;SDS011;41907;47.848;9.000;2023-02-01T05:25:46;9.23;;;4.47;;
56037;SDS011;41907;47.848;9.000;2023-02-01T05:28:12;19.30;;;9.02;;
56037;SDS011;41907;47.848;9.000;2023-02-01T05:30:37;16.10;;;7.63;;
56037;SDS011;41907;47.848;9.000;2023-02-01T05:33:03;8.65;;;4.78;;
56037;SDS011;41907;47.848;9.000;2023-02-01T05:35:28;7.50;;;4.03;;
56037;SDS011;41907;47.848;9.000;2023-02-01T05:37:54;6.53;;;4.32;;
56037;SDS011;41907;47.848;9.000;2023-02-01T05:40:19;9.38;;;4.22;;
56037;SDS011;41907;47.848;9.000;2023-02-01T05:42:44;9.27;;;4.47;;
56037;SDS011;41907;47.848;9.000;2023-02-01T05:45:10;5.97;;;3.25;;
56037;SDS011;41907;47.848;9.000;2023-02-01T05:47:36;5.80;;;3.60;;
56037;SDS011;41907;47.848;9.000;2023-02-01T05:50:02;15.30;;;6.65;;
56037;SDS011;41907;47.848;9.000;2023-02-01T05:52:28;15.02;;;8.07;;
56037;SDS011;41907;47.848;9.000;2023-02-01T05:54:54;7.90;;;5.05;;
56037;SDS011;41907;47.848;9.000;2023-02-01T05:57:19;9.65;;;4.90;;
56037;SDS011;41907;47.848;9.000;2023-02-01T05:59:44;9.27;;;5.35;;
56037;SDS011;41907;47.848;9.000;2023-02-01T06:02:13;8.45;;;3.95;;
56037;SDS011;41907;47.848;9.000;2023-02-01T06:04:38;8.90;;;4.75;;
56037;SDS011;41907;47.848;9.000;2023-02-01T06:07:04;11.88;;;6.75;;
56037;SDS011;41907;47.848;9.000;2023-02-01T06:09:32;11.50;;;6.75;;
56037;SDS011;41907;47.848;9.000;2023-02-01T06:11:58;9.70;;;5.50;;
56037;SDS011;41907;47.848;9.000;2023-02-01T06:14:24;11.43;;;6.65;;
56037;SDS011;41907;47.848;9.000;2023-02-01T06:16:50;10.73;;;6.32;;
56037;SDS011;41907;47.848;9.000;2023-02-01T06:19:15;10.38;;;6.18;;
56037;SDS011;41907;47.848;9.000;2023-02-01T06:21:40;11.05;;;5.80;;
56037;SDS011;41907;47.848;9.000;2023-02-01T06:24:06;14.90;;;10.48;;
56037;SDS011;41907;47.848;9.000;2023-02-01T06:26:31;26.27;;;16.55;;
56037;SDS011;41907;47.848;9.000;2023-02-01T06:28:57;39.20;;;20.45;;
56037;SDS011;41907;47.848;9.000;2023-02-01T06:31:22;17.25;;;8.77;;
56037;SDS011;41907;47.848;9.000;2023-02-01T06:33:48;14.93;;;9.20;;
56037;SDS011;41907;47.848;9.000;2023-02-01T06:36:14;17.38;;;9.52;;
56037;SDS011;41907;47.848;9.000;2023-02-01T06:38:40;23.70;;;17.02;;
56037;SDS011;41907;47.848;9.000;2023-02-01T06:41:06;31.08;;;20.88;;
56037;SDS011;41907;47.848;9.000;2023-02-01T06:43:33;20.83;;;13.63;;
56037;SDS011;41907;47.848;9.000;2023-02-01T06:45:59;34.75;;;22.65;;
56037;SDS011;41907;47.848;9.000;2023-02-01T06:48:28;17.73;;;9.38;;
56037;SDS011;41907;47.848;9.000;2023-02-01T06:50:54;15.80;;;6.72;;
56037;SDS011;41907;47.848;9.000;2023-02-01T06:53:20;12.30;;;5.57;;
56037;SDS011;41907;47.848;9.000;2023-02-01T06:55:55;13.75;;;6.80;;
56037;SDS011;41907;47.848;9.000;2023-02-01T06:58:27;18.45;;;9.73;;
56037;SDS011;41907;47.848;9.000;2023-02-01T07:00:54;28.98;;;16.73;;
56037;SDS011;41907;47.848;9.000;2023-02-01T07:03:19;14.43;;;9.98;;
56037;SDS011;41907;47.848;9.000;2023-02-01T07:05:44;34.33;;;15.63;;
56037;SDS011;41907;47.848;9.000;2023-02-01T07:08:10;116.55;;;71.03;;
56037;SDS011;41907;47.848;9.000;2023-02-01T07:10:36;91.00;;;57.67;;
56037;SDS011;41907;47.848;9.000;2023-02-01T07:13:02;37.50;;;26.23;;
56037;SDS011;41907;47.848;9.000;2023-02-01T07:15:27;13.05;;;9.20;;
56037;SDS011;41907;47.848;9.000;2023-02-01T07:17:56;21.67;;;14.02;;
56037;SDS011;41907;47.848;9.000;2023-02-01T07:20:21;10.20;;;6.75;;
56037;SDS011;41907;47.848;9.000;2023-02-01T07:22:47;46.97;;;28.25;;
56037;SDS011;41907;47.848;9.000;2023-02-01T07:25:13;33.25;;;22.58;;
56037;SDS011;41907;47.848;9.000;2023-02-01T07:27:38;87.07;;;61.55;;
56037;SDS011;41907;47.848;9.000;2023-02-01T07:30:04;292.92;;;194.40;;
56037;SDS011;41907;47.848;9.000;2023-02-01T07:32:30;116.25;;;83.05;;
56037;SDS011;41907;47.848;9.000;2023-02-01T07:34:55;64.18;;;43.50;;
56037;SDS011;41907;47.848;9.000;2023-02-01T07:37:21;114.38;;;75.93;;
56037;SDS011;41907;47.848;9.000;2023-02-01T07:39:48;64.10;;;42.55;;
56037;SDS011;41907;47.848;9.000;2023-02-01T07:42:14;25.02;;;15.52;;
56037;SDS011;41907;47.848;9.000;2023-02-01T07:44:40;21.40;;;13.48;;
56037;SDS011;41907;47.848;9.000;2023-02-01T07:47:05;47.92;;;30.55;;
56037;SDS011;41907;47.848;9.000;2023-02-01T07:49:31;52.55;;;33.47;;
56037;SDS011;41907;47.848;9.000;2023-02-01T07:51:56;73.55;;;45.08;;
56037;SDS011;41907;47.848;9.000;2023-02-01T07:54:21;103.80;;;68.20;;
56037;SDS011;41907;47.848;9.000;2023-02-01T07:56:47;53.20;;;35.75;;
56037;SDS011;41907;47.848;9.000;2023-02-01T07:59:12;42.60;;;27.75;;
56037;SDS011;41907;47.848;9.000;2023-02-01T08:01:37;39.00;;;23.48;;
56037;SDS011;41907;47.848;9.000;2023-02-01T08:04:03;51.67;;;33.55;;
56037;SDS011;41907;47.848;9.000;2023-02-01T08:06:30;20.27;;;13.30;;
56037;SDS011;41907;47.848;9.000;2023-02-01T08:08:56;37.92;;;23.15;;
56037;SDS011;41907;47.848;9.000;2023-02-01T08:11:23;53.08;;;37.28;;
56037;SDS011;41907;47.848;9.000;2023-02-01T08:13:50;21.42;;;14.82;;
56037;SDS011;41907;47.848;9.000;2023-02-01T08:16:16;40.47;;;30.55;;
56037;SDS011;41907;47.848;9.000;2023-02-01T08:18:44;91.65;;;57.05;;
56037;SDS011;41907;47.848;9.000;2023-02-01T08:21:11;43.35;;;29.38;;
56037;SDS011;41907;47.848;9.000;2023-02-01T08:23:41;110.05;;;65.53;;
56037;SDS011;41907;47.848;9.000;2023-02-01T08:26:09;215.35;;;115.88;;
56037;SDS011;41907;47.848;9.000;2023-02-01T08:28:45;63.63;;;37.50;;
56037;SDS011;41907;47.848;9.000;2023-02-01T08:31:14;47.33;;;28.92;;
56037;SDS011;41907;47.848;9.000;2023-02-01T08:33:42;74.63;;;41.85;;
56037;SDS011;41907;47.848;9.000;2023-02-01T08:36:08;90.50;;;53.15;;
56037;SDS011;41907;47.848;9.000;2023-02-01T08:38:35;26.77;;;17.80;;
56037;SDS011;41907;47.848;9.000;2023-02-01T08:41:08;21.73;;;11.88;;
56037;SDS011;41907;47.848;9.000;2023-02-01T08:43:35;54.22;;;36.53;;
56037;SDS011;41907;47.848;9.000;2023-02-01T08:46:00;25.73;;;17.23;;
56037;SDS011;41907;47.848;9.000;2023-02-01T08:48:26;32.67;;;21.05;;
56037;SDS011;41907;47.848;9.000;2023-02-01T08:50:52;35.30;;;19.63;;
56037;SDS011;41907;47.848;9.000;2023-02-01T08:53:17;55.88;;;36.20;;
56037;SDS011;41907;47.848;9.000;2023-02-01T08:55:42;79.28;;;46.70;;
56037;SDS011;41907;47.848;9.000;2023-02-01T08:58:08;47.08;;;29.02;;
56037;SDS011;41907;47.848;9.000;2023-02-01T09:00:33;39.92;;;26.35;;
56037;SDS011;41907;47.848;9.000;2023-02-01T09:02:58;43.60;;;26.38;;
56037;SDS011;41907;47.848;9.000;2023-02-01T09:05:24;32.15;;;18.85;;
56037;SDS011;41907;47.848;9.000;2023-02-01T09:07:51;23.42;;;13.48;;
56037;SDS011;41907;47.848;9.000;2023-02-01T09:10:17;19.63;;;11.38;;
56037;SDS011;41907;47.848;9.000;2023-02-01T09:12:43;107.47;;;57.90;;
56037;SDS011;41907;47.848;9.000;2023-02-01T09:15:08;67.85;;;36.40;;
56037;SDS011;41907;47.848;9.000;2023-02-01T09:17:34;50.95;;;29.30;;
56037;SDS011;41907;47.848;9.000;2023-02-01T09:19:59;45.08;;;28.15;;
56037;SDS011;41907;47.848;9.000;2023-02-01T09:22:25;38.03;;;23.27;;
56037;SDS011;41907;47.848;9.000;2023-02-01T09:24:51;56.67;;;35.80;;
56037;SDS011;41907;47.848;9.000;2023-02-01T09:27:17;45.17;;;30.13;;
56037;SDS011;41907;47.848;9.000;2023-02-01T09:29:42;79.63;;;50.78;;
56037;SDS011;41907;47.848;9.000;2023-02-01T09:32:08;80.38;;;53.90;;
56037;SDS011;41907;47.848;9.000;2023-02-01T09:34:33;35.25;;;22.67;;
56037;SDS011;41907;47.848;9.000;2023-02-01T09:37:00;43.00;;;25.10;;
56037;SDS011;41907;47.848;9.000;2023-02-01T09:39:25;22.92;;;14.73;;
56037;SDS011;41907;47.848;9.000;2023-02-01T09:46:58;15.88;;;8.00;;
56037;SDS011;41907;47.848;9.000;2023-02-01T09:49:28;20.83;;;11.10;;
56037;SDS011;41907;47.848;9.000;2023-02-01T09:51:55;17.95;;;10.02;;
56037;SDS011;41907;47.848;9.000;2023-02-01T09:54:24;20.67;;;10.38;;
56037;SDS011;41907;47.848;9.000;2023-02-01T09:56:56;22.75;;;13.32;;
56037;SDS011;41907;47.848;9.000;2023-02-01T09:59:36;12.90;;;7.45;;
56037;SDS011;41907;47.848;9.000;2023-02-01T10:02:11;16.90;;;9.30;;
56037;SDS011;41907;47.848;9.000;2023-02-01T10:04:39;30.00;;;15.43;;
56037;SDS011;41907;47.848;9.000;2023-02-01T10:28:49;81.53;;;50.47;;
56037;SDS011;41907;47.848;9.000;2023-02-01T10:31:17;63.10;;;40.20;;
56037;SDS011;41907;47.848;9.000;2023-02-01T10:36:31;28.02;;;17.30;;
56037;SDS011;41907;47.848;9.000;2023-02-01T10:39:01;19.20;;;10.38;;
56037;SDS011;41907;47.848;9.000;2023-02-01T10:41:32;21.23;;;14.90;;
56037;SDS011;41907;47.848;9.000;2023-02-01T10:44:00;27.65;;;21.65;;
56037;SDS011;41907;47.848;9.000;2023-02-01T10:46:30;23.83;;;13.85;;
56037;SDS011;41907;47.848;9.000;2023-02-01T10:48:56;17.27;;;11.18;;
56037;SDS011;41907;47.848;9.000;2023-02-01T10:54:32;19.73;;;14.52;;
56037;SDS011;41907;47.848;9.000;2023-02-01T10:56:59;37.38;;;29.80;;
56037;SDS011;41907;47.848;9.000;2023-02-01T10:59:25;20.65;;;15.27;;
56037;SDS011;41907;47.848;9.000;2023-02-01T11:05:09;14.15;;;10.18;;
56037;SDS011;41907;47.848;9.000;2023-02-01T11:07:37;10.32;;;6.57;;
56037;SDS011;41907;47.848;9.000;2023-02-01T11:10:04;17.02;;;9.07;;
56037;SDS011;41907;47.848;9.000;2023-02-01T11:12:34;11.57;;;7.60;;
56037;SDS011;41907;47.848;9.000;2023-02-01T11:17:39;9.97;;;5.77;;
56037;SDS011;41907;47.848;9.000;2023-02-01T11:20:12;10.25;;;5.78;;
56037;SDS011;41907;47.848;9.000;2023-02-01T11:22:46;16.48;;;7.47;;
56037;SDS011;41907;47.848;9.000;2023-02-01T11:25:13;11.23;;;6.32;;
56037;SDS011;41907;47.848;9.000;2023-02-01T11:27:41;9.90;;;5.57;;
56037;SDS011;41907;47.848;9.000;2023-02-01T11:30:07;12.05;;;6.00;;
56037;SDS011;41907;47.848;9.000;2023-02-01T11:37:39;9.73;;;4.03;;
56037;SDS011;41907;47.848;9.000;2023-02-01T11:42:55;13.00;;;6.60;;
56037;SDS011;41907;47.848;9.000;2023-02-01T11:45:53;14.32;;;5.28;;
56037;SDS011;41907;47.848;9.000;2023-02-01T11:48:31;8.13;;;4.35;;
56037;SDS011;41907;47.848;9.000;2023-02-01T11:51:08;7.35;;;4.50;;
56037;SDS011;41907;47.848;9.000;2023-02-01T11:53:57;9.35;;;4.25;;
56037;SDS011;41907;47.848;9.000;2023-02-01T11:56:36;14.00;;;6.80;;
56037;SDS011;41907;47.848;9.000;2023-02-01T12:07:14;17.63;;;6.88;;
56037;SDS011;41907;47.848;9.000;2023-02-01T12:09:50;11.55;;;4.50;;
56037;SDS011;41907;47.848;9.000;2023-02-01T12:15:42;8.73;;;4.43;;
56037;SDS011;41907;47.848;9.000;2023-02-01T12:17:58;7.90;;;4.60;;
56037;SDS011;41907;47.848;9.000;2023-02-01T12:42:36;4.00;;;2.38;;
56037;SDS011;41907;47.848;9.000;2023-02-01T12:47:52;5.43;;;2.25;;
56037;SDS011;41907;47.848;9.000;2023-02-01T12:50:42;5.65;;;2.17;;
56037;SDS011;41907;47.848;9.000;2023-02-01T12:53:15;8.07;;;2.63;;
56037;SDS011;41907;47.848;9.000;2023-02-01T12:55:47;6.60;;;2.97;;
56037;SDS011;41907;47.848;9.000;2023-02-01T12:58:21;6.13;;;2.53;;
56037;SDS011;41907;47.848;9.000;2023-02-01T13:01:05;3.77;;;2.73;;
56037;SDS011;41907;47.848;9.000;2023-02-01T13:06:39;5.75;;;3.10;;
56037;SDS011;41907;47.848;9.000;2023-02-01T13:12:15;11.63;;;6.75;;
56037;SDS011;41907;47.848;9.000;2023-02-01T13:14:49;8.60;;;3.23;;
56037;SDS011;41907;47.848;9.000;2023-02-01T13:17:20;8.70;;;4.03;;
56037;SDS011;41907;47.848;9.000;2023-02-01T13:20:15;6.80;;;3.20;;
56037;SDS011;41907;47.848;9.000;2023-02-01T13:22:45;5.60;;;2.35;;
56037;SDS011;41907;47.848;9.000;2023-02-01T13:27:49;8.73;;;2.60;;
56037;SDS011;41907;47.848;9.000;2023-02-01T13:30:19;8.15;;;1.90;;
56037;SDS011;41907;47.848;9.000;2023-02-01T13:38:35;6.67;;;2.03;;
56037;SDS011;41907;47.848;9.000;2023-02-01T13:41:28;6.82;;;2.50;;
56037;SDS011;41907;47.848;9.000;2023-02-01T13:44:15;2.63;;;1.45;;
56037;SDS011;41907;47.848;9.000;2023-02-01T13:46:49;8.00;;;3.75;;
56037;SDS011;41907;47.848;9.000;2023-02-01T13:49:26;5.55;;;1.73;;
56037;SDS011;41907;47.848;9.000;2023-02-01T13:51:58;5.93;;;2.35;;
56037;SDS011;41907;47.848;9.000;2023-02-01T13:54:29;8.43;;;2.72;;
56037;SDS011;41907;47.848;9.000;2023-02-01T13:56:56;8.98;;;2.28;;
56037;SDS011;41907;47.848;9.000;2023-02-01T14:10:48;3.97;;;2.13;;
56037;SDS011;41907;47.848;9.000;2023-02-01T14:13:40;14.52;;;7.05;;
56037;SDS011;41907;47.848;9.000;2023-02-01T14:16:13;10.90;;;6.90;;
56037;SDS011;41907;47.848;9.000;2023-02-01T14:21:15;19.38;;;12.85;;
56037;SDS011;41907;47.848;9.000;2023-02-01T14:26:18;7.90;;;2.95;;
56037;SDS011;41907;47.848;9.000;2023-02-01T14:29:00;17.25;;;12.65;;
56037;SDS011;41907;47.848;9.000;2023-02-01T14:31:32;29.77;;;13.85;;
56037;SDS011;41907;47.848;9.000;2023-02-01T14:34:02;14.80;;;7.15;;
56037;SDS011;41907;47.848;9.000;2023-02-01T14:37:24;27.77;;;19.23;;
56037;SDS011;41907;47.848;9.000;2023-02-01T14:39:33;74.60;;;50.88;;
56037;SDS011;41907;47.848;9.000;2023-02-01T14:42:01;31.75;;;25.17;;
56037;SDS011;41907;47.848;9.000;2023-02-01T14:44:33;28.17;;;22.23;;
56037;SDS011;41907;47.848;9.000;2023-02-01T14:49:35;12.15;;;6.53;;
56037;SDS011;41907;47.848;9.000;2023-02-01T14:52:09;13.98;;;6.90;;
56037;SDS011;41907;47.848;9.000;2023-02-01T14:54:39;28.95;;;11.88;;
56037;SDS011;41907;47.848;9.000;2023-02-01T14:57:04;22.42;;;8.65;;
56037;SDS011;41907;47.848;9.000;2023-02-01T14:59:35;21.95;;;9.18;;
56037;SDS011;41907;47.848;9.000;2023-02-01T15:02:01;20.25;;;5.90;;
56037;SDS011;41907;47.848;9.000;2023-02-01T15:04:41;9.57;;;3.03;;
56037;SDS011;41907;47.848;9.000;2023-02-01T15:07:09;8.80;;;3.28;;
56037;SDS011;41907;47.848;9.000;2023-02-01T15:09:47;13.02;;;5.45;;
56037;SDS011;41907;47.848;9.000;2023-02-01T15:12:31;19.08;;;8.07;;
56037;SDS011;41907;47.848;9.000;2023-02-01T15:15:14;21.52;;;11.90;;
56037;SDS011;41907;47.848;9.000;2023-02-01T15:17:48;13.82;;;6.57;;
56037;SDS011;41907;47.848;9.000;2023-02-01T15:20:16;29.15;;;17.75;;
56037;SDS011;41907;47.848;9.000;2023-02-01T15:22:51;29.38;;;16.45;;
56037;SDS011;41907;47.848;9.000;2023-02-01T15:25:37;9.73;;;3.95;;
56037;SDS011;41907;47.848;9.000;2023-02-01T15:28:03;12.02;;;7.43;;
56037;SDS011;41907;47.848;9.000;2023-02-01T15:30:32;19.73;;;8.93;;
56037;SDS011;41907;47.848;9.000;2023-02-01T15:35:41;37.17;;;14.02;;
56037;SDS011;41907;47.848;9.000;2023-02-01T15:43:23;8.43;;;3.67;;
56037;SDS011;41907;47.848;9.000;2023-02-01T15:45:49;9.43;;;3.17;;
56037;SDS011;41907;47.848;9.000;2023-02-01T15:48:22;8.20;;;4.30;;
56037;SDS011;41907;47.848;9.000;2023-02-01T15:50:51;9.30;;;3.60;;
56037;SDS011;41907;47.848;9.000;2023-02-01T15:53:21;10.25;;;4.13;;
56037;SDS011;41907;47.848;9.000;2023-02-01T15:55:51;45.25;;;15.27;;
56037;SDS011;41907;47.848;9.000;2023-02-01T15:58:20;17.42;;;7.82;;
56037;SDS011;41907;47.848;9.000;2023-02-01T16:00:48;7.18;;;3.33;;
56037;SDS011;41907;47.848;9.000;2023-02-01T16:03:25;15.07;;;6.38;;
56037;SDS011;41907;47.848;9.000;2023-02-01T16:05:58;8.57;;;2.80;;
56037;SDS011;41907;47.848;9.000;2023-02-01T16:08:26;13.45;;;4.10;;
56037;SDS011;41907;47.848;9.000;2023-02-01T16:10:54;14.40;;;5.10;;
56037;SDS011;41907;47.848;9.000;2023-02-01T16:13:25;13.75;;;5.25;;
56037;SDS011;41907;47.848;9.000;2023-02-01T16:15:51;22.13;;;8.77;;
56037;SDS011;41907;47.848;9.000;2023-02-01T16:18:16;9.27;;;3.65;;
56037;SDS011;41907;47.848;9.000;2023-02-01T16:20:42;11.98;;;6.10;;
56037;SDS011;41907;47.848;9.000;2023-02-01T16:23:08;22.20;;;9.80;;
56037;SDS011;41907;47.848;9.000;2023-02-01T16:25:34;17.23;;;4.68;;
56037;SDS011;41907;47.848;9.000;2023-02-01T16:28:00;20.67;;;7.05;;
56037;SDS011;41907;47.848;9.000;2023-02-01T16:30:26;16.75;;;6.75;;
56037;SDS011;41907;47.848;9.000;2023-02-01T16:32:52;20.15;;;4.78;;
56037;SDS011;41907;47.848;9.000;2023-02-01T16:37:51;13.95;;;5.65;;
56037;SDS011;41907;47.848;9.000;2023-02-01T16:40:17;9.27;;;3.30;;
56037;SDS011;41907;47.848;9.000;2023-02-01T16:42:43;12.50;;;4.43;;
56037;SDS011;41907;47.848;9.000;2023-02-01T16:45:11;11.63;;;3.35;;
56037;SDS011;41907;47.848;9.000;2023-02-01T16:47:37;11.50;;;3.28;;
56037;SDS011;41907;47.848;9.000;2023-02-01T16:50:05;12.63;;;4.95;;
56037;SDS011;41907;47.848;9.000;2023-02-01T16:52:41;18.70;;;7.10;;
56037;SDS011;41907;47.848;9.000;2023-02-01T16:55:17;73.97;;;30.00;;
56037;SDS011;41907;47.848;9.000;2023-02-01T16:57:44;32.13;;;13.95;;
56037;SDS011;41907;47.848;9.000;2023-02-01T17:00:10;14.20;;;6.45;;
56037;SDS011;41907;47.848;9.000;2023-02-01T17:02:36;27.27;;;12.10;;
56037;SDS011;41907;47.848;9.000;2023-02-01T17:05:02;9.88;;;4.22;;
56037;SDS011;41907;47.848;9.000;2023-02-01T17:07:28;23.38;;;9.18;;
56037;SDS011;41907;47.848;9.000;2023-02-01T17:09:54;22.25;;;9.48;;
56037;SDS011;41907;47.848;9.000;2023-02-01T17:12:30;14.27;;;4.70;;
56037;SDS011;41907;47.848;9.000;2023-02-01T17:14:57;18.15;;;8.60;;
56037;SDS011;41907;47.848;9.000;2023-02-01T17:17:23;23.30;;;11.02;;
56037;SDS011;41907;47.848;9.000;2023-02-01T17:19:58;19.67;;;10.57;;
56037;SDS011;41907;47.848;9.000;2023-02-01T17:22:24;13.85;;;4.63;;
56037;SDS011;41907;47.848;9.000;2023-02-01T17:24:49;12.13;;;5.10;;